sensor_id;sensor_type;location;lat;lon;timestamp;P1;durP1;ratioP1;P2;durP2;ratioP2
40367;SDS011;26075;43.320;21.920;2022-07-23T00:02:54;10.80;;;5.43;;
40367;SDS011;26075;43.320;21.920;2022-07-23T00:07:55;8.60;;;5.68;;
40367;SDS011;26075;43.320;21.920;2022-07-23T00:12:56;13.10;;;5.47;;
40367;SDS011;26075;43.320;21.920;2022-07-23T00:17:57;9.73;;;5.10;;
40367;SDS011;26075;43.320;21.920;2022-07-23T00:22:58;7.70;;;4.85;;
40367;SDS011;26075;43.320;21.920;2022-07-23T00:27:59;12.95;;;5.38;;
40367;SDS011;26075;43.320;21.920;2022-07-23T00:33:02;7.22;;;4.50;;
40367;SDS011;26075;43.320;21.920;2022-07-23T00:38:04;7.85;;;4.93;;
40367;SDS011;26075;43.320;21.920;2022-07-23T00:43:05;9.07;;;5.30;;
40367;SDS011;26075;43.320;21.920;2022-07-23T00:48:06;6.40;;;4.65;;
40367;SDS011;26075;43.320;21.920;2022-07-23T00:53:07;9.82;;;5.72;;
40367;SDS011;26075;43.320;21.920;2022-07-23T00:58:08;8.52;;;5.68;;
40367;SDS011;26075;43.320;21.920;2022-07-23T01:03:10;9.40;;;5.93;;
40367;SDS011;26075;43.320;21.920;2022-07-23T01:08:11;7.95;;;5.03;;
40367;SDS011;26075;43.320;21.920;2022-07-23T01:13:13;11.70;;;5.60;;
40367;SDS011;26075;43.320;21.920;2022-07-23T01:18:14;8.60;;;5.55;;
40367;SDS011;26075;43.320;21.920;2022-07-23T01:23:15;8.50;;;4.63;;
40367;SDS011;26075;43.320;21.920;2022-07-23T01:28:16;6.28;;;4.47;;
40367;SDS011;26075;43.320;21.920;2022-07-23T01:33:17;7.18;;;5.65;;
40367;SDS011;26075;43.320;21.920;2022-07-23T01:38:18;12.82;;;5.20;;
40367;SDS011;26075;43.320;21.920;2022-07-23T01:43:19;9.23;;;5.22;;
40367;SDS011;26075;43.320;21.920;2022-07-23T01:48:20;13.57;;;4.88;;
40367;SDS011;26075;43.320;21.920;2022-07-23T01:53:21;6.82;;;4.70;;
40367;SDS011;26075;43.320;21.920;2022-07-23T01:58:22;7.60;;;4.80;;
40367;SDS011;26075;43.320;21.920;2022-07-23T02:03:24;7.65;;;4.65;;
40367;SDS011;26075;43.320;21.920;2022-07-23T02:08:25;9.20;;;4.93;;
40367;SDS011;26075;43.320;21.920;2022-07-23T02:13:26;7.97;;;4.88;;
40367;SDS011;26075;43.320;21.920;2022-07-23T02:18:29;9.88;;;4.63;;
40367;SDS011;26075;43.320;21.920;2022-07-23T02:23:30;8.38;;;4.90;;
40367;SDS011;26075;43.320;21.920;2022-07-23T02:28:31;9.05;;;4.82;;
40367;SDS011;26075;43.320;21.920;2022-07-23T02:33:32;11.07;;;4.97;;
40367;SDS011;26075;43.320;21.920;2022-07-23T02:38:33;6.85;;;4.38;;
40367;SDS011;26075;43.320;21.920;2022-07-23T02:43:34;7.63;;;4.75;;
40367;SDS011;26075;43.320;21.920;2022-07-23T02:48:35;8.70;;;5.50;;
40367;SDS011;26075;43.320;21.920;2022-07-23T02:53:36;10.50;;;4.82;;
40367;SDS011;26075;43.320;21.920;2022-07-23T02:58:37;10.18;;;5.72;;
40367;SDS011;26075;43.320;21.920;2022-07-23T03:03:38;7.53;;;5.50;;
40367;SDS011;26075;43.320;21.920;2022-07-23T03:08:39;10.48;;;5.85;;
40367;SDS011;26075;43.320;21.920;2022-07-23T03:13:41;8.68;;;4.97;;
40367;SDS011;26075;43.320;21.920;2022-07-23T03:18:42;7.50;;;5.20;;
40367;SDS011;26075;43.320;21.920;2022-07-23T03:23:43;6.97;;;5.53;;
40367;SDS011;26075;43.320;21.920;2022-07-23T03:28:44;10.82;;;5.55;;
40367;SDS011;26075;43.320;21.920;2022-07-23T03:33:45;6.97;;;5.45;;
40367;SDS011;26075;43.320;21.920;2022-07-23T03:38:46;8.68;;;5.80;;
40367;SDS011;26075;43.320;21.920;2022-07-23T03:43:47;11.88;;;6.38;;
40367;SDS011;26075;43.320;21.920;2022-07-23T03:48:48;8.68;;;5.30;;
40367;SDS011;26075;43.320;21.920;2022-07-23T03:53:49;12.15;;;5.47;;
40367;SDS011;26075;43.320;21.920;2022-07-23T03:58:50;10.73;;;5.80;;
40367;SDS011;26075;43.320;21.920;2022-07-23T04:03:51;8.45;;;4.95;;
40367;SDS011;26075;43.320;21.920;2022-07-23T04:08:52;9.30;;;5.85;;
40367;SDS011;26075;43.320;21.920;2022-07-23T04:13:53;8.48;;;4.88;;
40367;SDS011;26075;43.320;21.920;2022-07-23T04:18:54;6.95;;;5.35;;
40367;SDS011;26075;43.320;21.920;2022-07-23T04:23:55;9.27;;;5.63;;
40367;SDS011;26075;43.320;21.920;2022-07-23T04:28:56;8.07;;;5.45;;
40367;SDS011;26075;43.320;21.920;2022-07-23T04:33:57;9.13;;;4.35;;
40367;SDS011;26075;43.320;21.920;2022-07-23T04:38:58;8.48;;;5.03;;
40367;SDS011;26075;43.320;21.920;2022-07-23T04:43:59;8.82;;;5.00;;
40367;SDS011;26075;43.320;21.920;2022-07-23T04:49:01;8.68;;;4.97;;
40367;SDS011;26075;43.320;21.920;2022-07-23T04:54:02;7.20;;;5.07;;
40367;SDS011;26075;43.320;21.920;2022-07-23T04:59:03;8.73;;;5.32;;
40367;SDS011;26075;43.320;21.920;2022-07-23T05:04:04;9.63;;;5.68;;
40367;SDS011;26075;43.320;21.920;2022-07-23T05:09:05;9.80;;;5.30;;
40367;SDS011;26075;43.320;21.920;2022-07-23T05:14:06;10.95;;;5.80;;
40367;SDS011;26075;43.320;21.920;2022-07-23T05:19:07;10.98;;;5.90;;
40367;SDS011;26075;43.320;21.920;2022-07-23T05:24:08;9.52;;;6.18;;
40367;SDS011;26075;43.320;21.920;2022-07-23T05:29:09;11.25;;;6.45;;
40367;SDS011;26075;43.320;21.920;2022-07-23T05:34:10;11.07;;;6.60;;
40367;SDS011;26075;43.320;21.920;2022-07-23T05:39:11;11.70;;;7.00;;
40367;SDS011;26075;43.320;21.920;2022-07-23T05:44:12;11.07;;;6.65;;
40367;SDS011;26075;43.320;21.920;2022-07-23T05:49:13;11.77;;;7.95;;
40367;SDS011;26075;43.320;21.920;2022-07-23T05:54:14;14.40;;;6.50;;
40367;SDS011;26075;43.320;21.920;2022-07-23T05:59:15;13.35;;;6.75;;
40367;SDS011;26075;43.320;21.920;2022-07-23T06:04:16;14.63;;;6.70;;
40367;SDS011;26075;43.320;21.920;2022-07-23T06:09:17;10.90;;;6.10;;
40367;SDS011;26075;43.320;21.920;2022-07-23T06:14:19;11.82;;;6.57;;
40367;SDS011;26075;43.320;21.920;2022-07-23T06:19:20;11.77;;;5.97;;
40367;SDS011;26075;43.320;21.920;2022-07-23T06:24:21;9.90;;;5.85;;
40367;SDS011;26075;43.320;21.920;2022-07-23T06:29:22;11.60;;;5.65;;
40367;SDS011;26075;43.320;21.920;2022-07-23T06:34:23;9.48;;;6.10;;
40367;SDS011;26075;43.320;21.920;2022-07-23T06:39:24;10.48;;;5.57;;
40367;SDS011;26075;43.320;21.920;2022-07-23T06:44:25;11.15;;;5.80;;
40367;SDS011;26075;43.320;21.920;2022-07-23T06:49:26;12.88;;;6.53;;
40367;SDS011;26075;43.320;21.920;2022-07-23T06:54:27;11.35;;;6.40;;
40367;SDS011;26075;43.320;21.920;2022-07-23T06:59:28;10.98;;;5.63;;
40367;SDS011;26075;43.320;21.920;2022-07-23T07:04:29;19.00;;;6.18;;
40367;SDS011;26075;43.320;21.920;2022-07-23T07:09:31;13.98;;;5.68;;
40367;SDS011;26075;43.320;21.920;2022-07-23T07:14:32;16.17;;;6.13;;
40367;SDS011;26075;43.320;21.920;2022-07-23T07:19:33;12.18;;;6.68;;
40367;SDS011;26075;43.320;21.920;2022-07-23T07:24:35;11.63;;;6.10;;
40367;SDS011;26075;43.320;21.920;2022-07-23T07:29:36;13.57;;;6.22;;
40367;SDS011;26075;43.320;21.920;2022-07-23T07:34:37;14.95;;;6.93;;
40367;SDS011;26075;43.320;21.920;2022-07-23T07:39:38;20.55;;;8.18;;
40367;SDS011;26075;43.320;21.920;2022-07-23T07:44:39;13.82;;;6.45;;
40367;SDS011;26075;43.320;21.920;2022-07-23T07:49:40;12.15;;;6.50;;
40367;SDS011;26075;43.320;21.920;2022-07-23T07:54:41;12.10;;;6.88;;
40367;SDS011;26075;43.320;21.920;2022-07-23T07:59:42;13.25;;;6.43;;
40367;SDS011;26075;43.320;21.920;2022-07-23T08:04:43;13.93;;;6.18;;
40367;SDS011;26075;43.320;21.920;2022-07-23T08:09:44;12.77;;;7.68;;
40367;SDS011;26075;43.320;21.920;2022-07-23T08:14:46;8.88;;;6.38;;
40367;SDS011;26075;43.320;21.920;2022-07-23T08:19:47;13.38;;;6.80;;
40367;SDS011;26075;43.320;21.920;2022-07-23T08:24:47;14.27;;;7.55;;
40367;SDS011;26075;43.320;21.920;2022-07-23T08:29:49;14.73;;;6.55;;
40367;SDS011;26075;43.320;21.920;2022-07-23T08:34:50;14.30;;;7.35;;
40367;SDS011;26075;43.320;21.920;2022-07-23T08:39:51;12.93;;;6.65;;
40367;SDS011;26075;43.320;21.920;2022-07-23T08:44:52;16.80;;;7.38;;
40367;SDS011;26075;43.320;21.920;2022-07-23T08:49:53;13.60;;;6.85;;
40367;SDS011;26075;43.320;21.920;2022-07-23T08:54:54;12.73;;;5.68;;
40367;SDS011;26075;43.320;21.920;2022-07-23T08:59:56;15.60;;;6.93;;
40367;SDS011;26075;43.320;21.920;2022-07-23T09:04:57;15.75;;;6.43;;
40367;SDS011;26075;43.320;21.920;2022-07-23T09:10:05;10.35;;;6.28;;
40367;SDS011;26075;43.320;21.920;2022-07-23T09:15:08;9.57;;;6.15;;
40367;SDS011;26075;43.320;21.920;2022-07-23T09:20:10;10.57;;;6.43;;
40367;SDS011;26075;43.320;21.920;2022-07-23T09:25:15;13.68;;;7.55;;
40367;SDS011;26075;43.320;21.920;2022-07-23T09:30:17;12.68;;;6.38;;
40367;SDS011;26075;43.320;21.920;2022-07-23T09:35:18;13.85;;;7.22;;
40367;SDS011;26075;43.320;21.920;2022-07-23T09:40:19;12.52;;;7.10;;
40367;SDS011;26075;43.320;21.920;2022-07-23T09:45:20;10.05;;;5.80;;
40367;SDS011;26075;43.320;21.920;2022-07-23T09:50:21;13.88;;;6.85;;
40367;SDS011;26075;43.320;21.920;2022-07-23T09:55:27;12.77;;;6.20;;
40367;SDS011;26075;43.320;21.920;2022-07-23T10:00:35;15.93;;;7.53;;
40367;SDS011;26075;43.320;21.920;2022-07-23T10:05:37;16.70;;;5.68;;
40367;SDS011;26075;43.320;21.920;2022-07-23T10:10:39;12.68;;;6.95;;
40367;SDS011;26075;43.320;21.920;2022-07-23T10:15:40;17.08;;;6.60;;
40367;SDS011;26075;43.320;21.920;2022-07-23T10:20:41;17.08;;;5.72;;
40367;SDS011;26075;43.320;21.920;2022-07-23T10:25:49;16.38;;;6.25;;
40367;SDS011;26075;43.320;21.920;2022-07-23T10:37:01;15.13;;;5.63;;
40367;SDS011;26075;43.320;21.920;2022-07-23T10:42:08;12.43;;;6.07;;
40367;SDS011;26075;43.320;21.920;2022-07-23T10:47:10;12.02;;;5.15;;
40367;SDS011;26075;43.320;21.920;2022-07-23T10:57:15;16.45;;;5.95;;
40367;SDS011;26075;43.320;21.920;2022-07-23T11:02:20;14.90;;;6.20;;
40367;SDS011;26075;43.320;21.920;2022-07-23T11:07:21;9.20;;;5.38;;
40367;SDS011;26075;43.320;21.920;2022-07-23T11:17:24;11.38;;;4.85;;
40367;SDS011;26075;43.320;21.920;2022-07-23T11:22:38;14.50;;;5.65;;
40367;SDS011;26075;43.320;21.920;2022-07-23T11:27:42;14.20;;;5.70;;
40367;SDS011;26075;43.320;21.920;2022-07-23T11:32:43;16.90;;;6.22;;
40367;SDS011;26075;43.320;21.920;2022-07-23T11:37:44;12.02;;;5.13;;
40367;SDS011;26075;43.320;21.920;2022-07-23T11:42:57;11.45;;;5.50;;
40367;SDS011;26075;43.320;21.920;2022-07-23T11:47:58;11.85;;;4.72;;
40367;SDS011;26075;43.320;21.920;2022-07-23T11:52:59;18.88;;;5.72;;
40367;SDS011;26075;43.320;21.920;2022-07-23T11:58:00;10.45;;;4.35;;
40367;SDS011;26075;43.320;21.920;2022-07-23T12:03:02;12.30;;;5.60;;
40367;SDS011;26075;43.320;21.920;2022-07-23T12:08:05;11.18;;;4.90;;
40367;SDS011;26075;43.320;21.920;2022-07-23T12:18:11;17.38;;;4.97;;
40367;SDS011;26075;43.320;21.920;2022-07-23T12:23:14;13.35;;;5.00;;
40367;SDS011;26075;43.320;21.920;2022-07-23T12:33:24;16.98;;;4.25;;
40367;SDS011;26075;43.320;21.920;2022-07-23T12:38:26;12.13;;;5.03;;
40367;SDS011;26075;43.320;21.920;2022-07-23T12:43:36;12.50;;;4.63;;
40367;SDS011;26075;43.320;21.920;2022-07-23T12:48:39;12.52;;;6.43;;
40367;SDS011;26075;43.320;21.920;2022-07-23T12:58:42;12.52;;;4.88;;
40367;SDS011;26075;43.320;21.920;2022-07-23T13:03:44;15.15;;;4.30;;
40367;SDS011;26075;43.320;21.920;2022-07-23T13:08:55;11.32;;;4.60;;
40367;SDS011;26075;43.320;21.920;2022-07-23T13:13:56;12.38;;;4.82;;
40367;SDS011;26075;43.320;21.920;2022-07-23T13:18:58;13.65;;;4.78;;
40367;SDS011;26075;43.320;21.920;2022-07-23T13:23:59;14.25;;;4.63;;
40367;SDS011;26075;43.320;21.920;2022-07-23T13:29:00;16.02;;;5.07;;
40367;SDS011;26075;43.320;21.920;2022-07-23T13:34:01;12.55;;;5.43;;
40367;SDS011;26075;43.320;21.920;2022-07-23T13:39:02;12.80;;;4.70;;
40367;SDS011;26075;43.320;21.920;2022-07-23T13:44:03;11.20;;;4.55;;
40367;SDS011;26075;43.320;21.920;2022-07-23T13:49:05;5.88;;;4.10;;
40367;SDS011;26075;43.320;21.920;2022-07-23T13:54:06;7.15;;;4.80;;
40367;SDS011;26075;43.320;21.920;2022-07-23T13:59:07;8.18;;;4.15;;
40367;SDS011;26075;43.320;21.920;2022-07-23T14:04:08;14.90;;;4.93;;
40367;SDS011;26075;43.320;21.920;2022-07-23T14:09:09;8.18;;;4.60;;
40367;SDS011;26075;43.320;21.920;2022-07-23T14:14:10;11.73;;;4.68;;
40367;SDS011;26075;43.320;21.920;2022-07-23T14:19:11;9.25;;;4.28;;
40367;SDS011;26075;43.320;21.920;2022-07-23T14:24:12;11.45;;;4.43;;
40367;SDS011;26075;43.320;21.920;2022-07-23T14:29:13;11.02;;;4.95;;
40367;SDS011;26075;43.320;21.920;2022-07-23T14:34:14;10.98;;;4.72;;
40367;SDS011;26075;43.320;21.920;2022-07-23T14:39:15;9.77;;;4.18;;
40367;SDS011;26075;43.320;21.920;2022-07-23T14:44:16;7.82;;;4.20;;
40367;SDS011;26075;43.320;21.920;2022-07-23T14:49:17;11.18;;;6.07;;
40367;SDS011;26075;43.320;21.920;2022-07-23T14:54:19;11.48;;;4.65;;
40367;SDS011;26075;43.320;21.920;2022-07-23T14:59:20;15.75;;;5.75;;
40367;SDS011;26075;43.320;21.920;2022-07-23T15:04:21;11.13;;;4.55;;
40367;SDS011;26075;43.320;21.920;2022-07-23T15:09:22;10.13;;;4.63;;
40367;SDS011;26075;43.320;21.920;2022-07-23T15:14:23;10.98;;;4.50;;
40367;SDS011;26075;43.320;21.920;2022-07-23T15:19:24;9.10;;;4.90;;
40367;SDS011;26075;43.320;21.920;2022-07-23T15:24:25;12.05;;;4.90;;
40367;SDS011;26075;43.320;21.920;2022-07-23T15:29:26;11.98;;;5.00;;
40367;SDS011;26075;43.320;21.920;2022-07-23T15:34:27;11.02;;;4.80;;
40367;SDS011;26075;43.320;21.920;2022-07-23T15:39:28;10.48;;;5.22;;
40367;SDS011;26075;43.320;21.920;2022-07-23T15:44:29;11.63;;;5.93;;
40367;SDS011;26075;43.320;21.920;2022-07-23T15:49:30;13.05;;;5.15;;
40367;SDS011;26075;43.320;21.920;2022-07-23T15:54:31;10.52;;;5.35;;
40367;SDS011;26075;43.320;21.920;2022-07-23T15:59:32;15.88;;;6.25;;
40367;SDS011;26075;43.320;21.920;2022-07-23T16:04:33;7.35;;;5.20;;
40367;SDS011;26075;43.320;21.920;2022-07-23T16:09:34;7.72;;;4.90;;
40367;SDS011;26075;43.320;21.920;2022-07-23T16:14:36;7.65;;;5.03;;
40367;SDS011;26075;43.320;21.920;2022-07-23T16:19:37;10.18;;;5.68;;
40367;SDS011;26075;43.320;21.920;2022-07-23T16:24:38;10.38;;;5.80;;
40367;SDS011;26075;43.320;21.920;2022-07-23T16:29:39;8.35;;;4.90;;
40367;SDS011;26075;43.320;21.920;2022-07-23T16:34:40;12.38;;;4.90;;
40367;SDS011;26075;43.320;21.920;2022-07-23T16:39:41;9.07;;;5.32;;
40367;SDS011;26075;43.320;21.920;2022-07-23T16:44:42;8.57;;;5.40;;
40367;SDS011;26075;43.320;21.920;2022-07-23T16:49:43;8.90;;;5.40;;
40367;SDS011;26075;43.320;21.920;2022-07-23T16:54:44;11.25;;;5.03;;
40367;SDS011;26075;43.320;21.920;2022-07-23T16:59:45;7.70;;;5.07;;
40367;SDS011;26075;43.320;21.920;2022-07-23T17:04:46;11.57;;;6.75;;
40367;SDS011;26075;43.320;21.920;2022-07-23T17:09:48;14.80;;;8.13;;
40367;SDS011;26075;43.320;21.920;2022-07-23T17:14:49;12.90;;;8.00;;
40367;SDS011;26075;43.320;21.920;2022-07-23T17:19:50;23.48;;;15.48;;
40367;SDS011;26075;43.320;21.920;2022-07-23T17:24:51;19.05;;;9.88;;
40367;SDS011;26075;43.320;21.920;2022-07-23T17:29:52;14.90;;;7.90;;
40367;SDS011;26075;43.320;21.920;2022-07-23T17:34:53;17.60;;;7.90;;
40367;SDS011;26075;43.320;21.920;2022-07-23T17:39:54;15.40;;;8.20;;
40367;SDS011;26075;43.320;21.920;2022-07-23T17:44:55;15.80;;;7.03;;
40367;SDS011;26075;43.320;21.920;2022-07-23T17:49:56;14.23;;;6.07;;
40367;SDS011;26075;43.320;21.920;2022-07-23T17:54:58;15.93;;;6.32;;
40367;SDS011;26075;43.320;21.920;2022-07-23T18:00:00;13.65;;;6.97;;
40367;SDS011;26075;43.320;21.920;2022-07-23T18:05:01;16.13;;;7.35;;
40367;SDS011;26075;43.320;21.920;2022-07-23T18:10:02;13.73;;;6.78;;
40367;SDS011;26075;43.320;21.920;2022-07-23T18:15:04;16.90;;;7.38;;
40367;SDS011;26075;43.320;21.920;2022-07-23T18:20:05;18.95;;;7.80;;
40367;SDS011;26075;43.320;21.920;2022-07-23T18:25:08;15.32;;;8.10;;
40367;SDS011;26075;43.320;21.920;2022-07-23T18:30:09;17.38;;;7.75;;
40367;SDS011;26075;43.320;21.920;2022-07-23T18:35:10;16.77;;;7.85;;
40367;SDS011;26075;43.320;21.920;2022-07-23T18:40:11;18.10;;;7.50;;
40367;SDS011;26075;43.320;21.920;2022-07-23T18:45:13;17.52;;;7.20;;
40367;SDS011;26075;43.320;21.920;2022-07-23T18:50:14;18.92;;;7.72;;
40367;SDS011;26075;43.320;21.920;2022-07-23T18:55:15;19.95;;;8.00;;
40367;SDS011;26075;43.320;21.920;2022-07-23T19:00:16;19.48;;;9.45;;
40367;SDS011;26075;43.320;21.920;2022-07-23T19:05:18;15.40;;;7.82;;
40367;SDS011;26075;43.320;21.920;2022-07-23T19:10:19;15.48;;;6.90;;
40367;SDS011;26075;43.320;21.920;2022-07-23T19:15:20;13.45;;;8.77;;
40367;SDS011;26075;43.320;21.920;2022-07-23T19:20:21;15.45;;;7.28;;
40367;SDS011;26075;43.320;21.920;2022-07-23T19:25:22;15.43;;;7.20;;
40367;SDS011;26075;43.320;21.920;2022-07-23T19:30:23;20.15;;;7.43;;
40367;SDS011;26075;43.320;21.920;2022-07-23T19:35:24;15.40;;;6.40;;
40367;SDS011;26075;43.320;21.920;2022-07-23T19:40:25;23.90;;;6.70;;
40367;SDS011;26075;43.320;21.920;2022-07-23T19:45:26;19.60;;;7.00;;
40367;SDS011;26075;43.320;21.920;2022-07-23T19:50:27;13.38;;;6.25;;
40367;SDS011;26075;43.320;21.920;2022-07-23T19:55:28;13.75;;;6.80;;
40367;SDS011;26075;43.320;21.920;2022-07-23T20:00:30;23.35;;;9.27;;
40367;SDS011;26075;43.320;21.920;2022-07-23T20:05:31;23.65;;;13.38;;
40367;SDS011;26075;43.320;21.920;2022-07-23T20:10:32;22.67;;;9.75;;
40367;SDS011;26075;43.320;21.920;2022-07-23T20:15:34;17.33;;;11.05;;
40367;SDS011;26075;43.320;21.920;2022-07-23T20:20:35;21.35;;;7.72;;
40367;SDS011;26075;43.320;21.920;2022-07-23T20:25:36;16.38;;;6.82;;
40367;SDS011;26075;43.320;21.920;2022-07-23T20:30:40;14.35;;;7.30;;
40367;SDS011;26075;43.320;21.920;2022-07-23T20:35:42;20.08;;;10.43;;
40367;SDS011;26075;43.320;21.920;2022-07-23T20:40:43;28.20;;;15.10;;
40367;SDS011;26075;43.320;21.920;2022-07-23T20:45:45;29.10;;;15.52;;
40367;SDS011;26075;43.320;21.920;2022-07-23T20:50:46;17.75;;;10.85;;
40367;SDS011;26075;43.320;21.920;2022-07-23T20:55:48;17.25;;;10.00;;
40367;SDS011;26075;43.320;21.920;2022-07-23T21:00:49;15.52;;;7.93;;
40367;SDS011;26075;43.320;21.920;2022-07-23T21:05:50;17.45;;;8.55;;
40367;SDS011;26075;43.320;21.920;2022-07-23T21:10:51;12.98;;;6.57;;
40367;SDS011;26075;43.320;21.920;2022-07-23T21:15:52;12.63;;;6.78;;
40367;SDS011;26075;43.320;21.920;2022-07-23T21:20:53;20.63;;;7.07;;
40367;SDS011;26075;43.320;21.920;2022-07-23T21:26:14;15.68;;;7.22;;
40367;SDS011;26075;43.320;21.920;2022-07-23T21:31:15;23.55;;;11.00;;
40367;SDS011;26075;43.320;21.920;2022-07-23T21:36:17;35.53;;;13.45;;
40367;SDS011;26075;43.320;21.920;2022-07-23T21:41:18;22.20;;;13.98;;
40367;SDS011;26075;43.320;21.920;2022-07-23T21:46:19;28.10;;;14.63;;
40367;SDS011;26075;43.320;21.920;2022-07-23T21:51:20;24.40;;;12.10;;
40367;SDS011;26075;43.320;21.920;2022-07-23T21:56:21;20.05;;;9.45;;
40367;SDS011;26075;43.320;21.920;2022-07-23T22:01:23;26.48;;;10.52;;
40367;SDS011;26075;43.320;21.920;2022-07-23T22:06:24;14.63;;;8.13;;
40367;SDS011;26075;43.320;21.920;2022-07-23T22:11:25;13.30;;;8.20;;
40367;SDS011;26075;43.320;21.920;2022-07-23T22:16:26;28.88;;;11.65;;
40367;SDS011;26075;43.320;21.920;2022-07-23T22:21:27;18.67;;;8.00;;
40367;SDS011;26075;43.320;21.920;2022-07-23T22:26:28;15.48;;;8.60;;
40367;SDS011;26075;43.320;21.920;2022-07-23T22:31:29;15.13;;;7.82;;
40367;SDS011;26075;43.320;21.920;2022-07-23T22:36:30;11.85;;;6.20;;
40367;SDS011;26075;43.320;21.920;2022-07-23T22:41:31;20.40;;;7.13;;
40367;SDS011;26075;43.320;21.920;2022-07-23T22:46:32;16.92;;;7.45;;
40367;SDS011;26075;43.320;21.920;2022-07-23T22:51:33;19.10;;;7.40;;
40367;SDS011;26075;43.320;21.920;2022-07-23T22:56:34;12.93;;;6.78;;
40367;SDS011;26075;43.320;21.920;2022-07-23T23:01:35;16.23;;;6.53;;
40367;SDS011;26075;43.320;21.920;2022-07-23T23:06:36;15.82;;;7.43;;
40367;SDS011;26075;43.320;21.920;2022-07-23T23:11:37;16.05;;;7.22;;
40367;SDS011;26075;43.320;21.920;2022-07-23T23:16:38;13.60;;;6.55;;
40367;SDS011;26075;43.320;21.920;2022-07-23T23:21:39;11.30;;;6.45;;
40367;SDS011;26075;43.320;21.920;2022-07-23T23:26:40;13.85;;;7.13;;
40367;SDS011;26075;43.320;21.920;2022-07-23T23:31:41;14.90;;;6.95;;
40367;SDS011;26075;43.320;21.920;2022-07-23T23:36:42;13.15;;;7.93;;
40367;SDS011;26075;43.320;21.920;2022-07-23T23:41:44;15.55;;;6.97;;
40367;SDS011;26075;43.320;21.920;2022-07-23T23:46:45;15.15;;;6.45;;
40367;SDS011;26075;43.320;21.920;2022-07-23T23:51:46;14.35;;;6.28;;
40367;SDS011;26075;43.320;21.920;2022-07-23T23:56:47;13.57;;;5.78;;
